sensor_id;sensor_type;location;lat;lon;timestamp;temperature;humidity
78522;SHT31;67819;51.972;5.678;2023-04-03T00:01:27;4.9;61.6
78522;SHT31;67819;51.972;5.678;2023-04-03T00:03:55;4.9;61.4
78522;SHT31;67819;51.972;5.678;2023-04-03T00:06:25;4.9;61.3
78522;SHT31;67819;51.972;5.678;2023-04-03T00:08:53;4.8;61.7
78522;SHT31;67819;51.972;5.678;2023-04-03T00:11:22;4.8;61.6
78522;SHT31;67819;51.972;5.678;2023-04-03T00:13:52;4.8;61.6
78522;SHT31;67819;51.972;5.678;2023-04-03T00:16:20;4.8;61.5
78522;SHT31;67819;51.972;5.678;2023-04-03T00:18:49;4.8;61.5
78522;SHT31;67819;51.972;5.678;2023-04-03T00:21:18;4.7;61.3
78522;SHT31;67819;51.972;5.678;2023-04-03T00:23:46;4.7;61.6
78522;SHT31;67819;51.972;5.678;2023-04-03T00:26:15;4.7;61.4
78522;SHT31;67819;51.972;5.678;2023-04-03T00:28:44;4.7;61.7
78522;SHT31;67819;51.972;5.678;2023-04-03T00:31:14;4.7;61.5
78522;SHT31;67819;51.972;5.678;2023-04-03T00:33:43;4.7;61.5
78522;SHT31;67819;51.972;5.678;2023-04-03T00:36:15;4.6;61.6
78522;SHT31;67819;51.972;5.678;2023-04-03T00:38:43;4.6;61.4
78522;SHT31;67819;51.972;5.678;2023-04-03T00:41:12;4.6;61.6
78522;SHT31;67819;51.972;5.678;2023-04-03T00:43:43;4.6;61.5
78522;SHT31;67819;51.972;5.678;2023-04-03T00:46:12;4.6;61.7
78522;SHT31;67819;51.972;5.678;2023-04-03T00:48:46;4.6;61.6
78522;SHT31;67819;51.972;5.678;2023-04-03T00:51:20;4.6;61.8
78522;SHT31;67819;51.972;5.678;2023-04-03T00:53:55;4.5;61.8
78522;SHT31;67819;51.972;5.678;2023-04-03T00:56:27;4.5;61.7
78522;SHT31;67819;51.972;5.678;2023-04-03T00:59:00;4.5;61.8
78522;SHT31;67819;51.972;5.678;2023-04-03T01:01:30;4.5;61.9
78522;SHT31;67819;51.972;5.678;2023-04-03T01:04:00;4.5;62.0
78522;SHT31;67819;51.972;5.678;2023-04-03T01:06:32;4.4;62.1
78522;SHT31;67819;51.972;5.678;2023-04-03T01:09:03;4.4;62.2
78522;SHT31;67819;51.972;5.678;2023-04-03T01:11:33;4.4;62.2
78522;SHT31;67819;51.972;5.678;2023-04-03T01:14:02;4.4;62.3
78522;SHT31;67819;51.972;5.678;2023-04-03T01:16:32;4.4;62.3
78522;SHT31;67819;51.972;5.678;2023-04-03T01:19:01;4.4;62.4
78522;SHT31;67819;51.972;5.678;2023-04-03T01:23:27;4.3;62.6
78522;SHT31;67819;51.972;5.678;2023-04-03T01:26:00;4.3;62.7
78522;SHT31;67819;51.972;5.678;2023-04-03T01:28:30;4.3;62.8
78522;SHT31;67819;51.972;5.678;2023-04-03T01:31:06;4.3;63.0
78522;SHT31;67819;51.972;5.678;2023-04-03T01:33:38;4.3;63.2
78522;SHT31;67819;51.972;5.678;2023-04-03T01:36:12;4.3;63.2
78522;SHT31;67819;51.972;5.678;2023-04-03T01:38:42;4.2;63.3
78522;SHT31;67819;51.972;5.678;2023-04-03T01:41:12;4.2;63.3
78522;SHT31;67819;51.972;5.678;2023-04-03T01:43:42;4.2;63.3
78522;SHT31;67819;51.972;5.678;2023-04-03T01:46:11;4.2;63.3
78522;SHT31;67819;51.972;5.678;2023-04-03T01:48:40;4.2;63.5
78522;SHT31;67819;51.972;5.678;2023-04-03T01:51:09;4.1;63.5
78522;SHT31;67819;51.972;5.678;2023-04-03T01:53:38;4.1;63.7
78522;SHT31;67819;51.972;5.678;2023-04-03T01:56:07;4.1;64.0
78522;SHT31;67819;51.972;5.678;2023-04-03T01:58:36;4.1;64.1
78522;SHT31;67819;51.972;5.678;2023-04-03T02:01:06;4.0;64.5
78522;SHT31;67819;51.972;5.678;2023-04-03T02:03:34;4.0;64.6
78522;SHT31;67819;51.972;5.678;2023-04-03T02:06:03;4.0;64.7
78522;SHT31;67819;51.972;5.678;2023-04-03T02:08:32;4.0;64.8
78522;SHT31;67819;51.972;5.678;2023-04-03T02:11:01;4.0;65.1
78522;SHT31;67819;51.972;5.678;2023-04-03T02:13:29;4.0;65.2
78522;SHT31;67819;51.972;5.678;2023-04-03T02:15:58;3.9;65.3
78522;SHT31;67819;51.972;5.678;2023-04-03T02:18:27;3.9;65.6
78522;SHT31;67819;51.972;5.678;2023-04-03T02:20:58;3.9;65.5
78522;SHT31;67819;51.972;5.678;2023-04-03T02:23:26;3.9;65.6
78522;SHT31;67819;51.972;5.678;2023-04-03T02:26:06;3.9;65.7
78522;SHT31;67819;51.972;5.678;2023-04-03T02:28:36;3.9;65.9
78522;SHT31;67819;51.972;5.678;2023-04-03T02:31:05;3.9;66.0
78522;SHT31;67819;51.972;5.678;2023-04-03T02:33:35;3.8;66.1
78522;SHT31;67819;51.972;5.678;2023-04-03T02:36:06;3.8;66.2
78522;SHT31;67819;51.972;5.678;2023-04-03T02:38:36;3.8;66.2
78522;SHT31;67819;51.972;5.678;2023-04-03T02:41:07;3.8;66.4
78522;SHT31;67819;51.972;5.678;2023-04-03T02:43:36;3.8;66.5
78522;SHT31;67819;51.972;5.678;2023-04-03T02:46:05;3.8;66.7
78522;SHT31;67819;51.972;5.678;2023-04-03T02:48:34;3.8;66.7
78522;SHT31;67819;51.972;5.678;2023-04-03T02:51:03;3.7;66.8
78522;SHT31;67819;51.972;5.678;2023-04-03T02:53:32;3.7;66.9
78522;SHT31;67819;51.972;5.678;2023-04-03T02:56:01;3.7;67.0
78522;SHT31;67819;51.972;5.678;2023-04-03T02:58:30;3.7;66.9
78522;SHT31;67819;51.972;5.678;2023-04-03T03:00:58;3.7;66.9
78522;SHT31;67819;51.972;5.678;2023-04-03T03:03:27;3.7;67.1
78522;SHT31;67819;51.972;5.678;2023-04-03T03:06:03;3.7;67.0
78522;SHT31;67819;51.972;5.678;2023-04-03T03:08:32;3.7;67.1
78522;SHT31;67819;51.972;5.678;2023-04-03T03:11:01;3.7;67.1
78522;SHT31;67819;51.972;5.678;2023-04-03T03:13:30;3.7;67.2
78522;SHT31;67819;51.972;5.678;2023-04-03T03:15:59;3.6;67.4
78522;SHT31;67819;51.972;5.678;2023-04-03T03:18:28;3.6;67.5
78522;SHT31;67819;51.972;5.678;2023-04-03T03:20:59;3.6;67.6
78522;SHT31;67819;51.972;5.678;2023-04-03T03:23:30;3.6;67.7
78522;SHT31;67819;51.972;5.678;2023-04-03T03:26:00;3.6;67.8
78522;SHT31;67819;51.972;5.678;2023-04-03T03:28:32;3.6;67.9
78522;SHT31;67819;51.972;5.678;2023-04-03T03:31:02;3.6;68.0
78522;SHT31;67819;51.972;5.678;2023-04-03T03:33:32;3.5;68.1
78522;SHT31;67819;51.972;5.678;2023-04-03T03:36:01;3.5;68.1
78522;SHT31;67819;51.972;5.678;2023-04-03T03:38:30;3.5;68.3
78522;SHT31;67819;51.972;5.678;2023-04-03T03:40:58;3.5;68.5
78522;SHT31;67819;51.972;5.678;2023-04-03T03:43:27;3.5;68.5
78522;SHT31;67819;51.972;5.678;2023-04-03T03:45:56;3.5;68.7
78522;SHT31;67819;51.972;5.678;2023-04-03T03:48:25;3.5;68.7
78522;SHT31;67819;51.972;5.678;2023-04-03T03:50:54;3.5;68.6
78522;SHT31;67819;51.972;5.678;2023-04-03T03:53:23;3.4;68.7
78522;SHT31;67819;51.972;5.678;2023-04-03T03:55:54;3.4;68.8
78522;SHT31;67819;51.972;5.678;2023-04-03T03:58:22;3.4;68.8
78522;SHT31;67819;51.972;5.678;2023-04-03T04:00:53;3.4;68.8
78522;SHT31;67819;51.972;5.678;2023-04-03T04:03:21;3.4;68.9
78522;SHT31;67819;51.972;5.678;2023-04-03T04:05:50;3.4;68.9
78522;SHT31;67819;51.972;5.678;2023-04-03T04:08:19;3.4;68.9
78522;SHT31;67819;51.972;5.678;2023-04-03T04:10:48;3.3;69.0
78522;SHT31;67819;51.972;5.678;2023-04-03T04:13:17;3.3;69.1
78522;SHT31;67819;51.972;5.678;2023-04-03T04:15:47;3.3;69.2
78522;SHT31;67819;51.972;5.678;2023-04-03T04:18:16;3.3;69.3
78522;SHT31;67819;51.972;5.678;2023-04-03T04:20:47;3.2;69.5
78522;SHT31;67819;51.972;5.678;2023-04-03T04:23:16;3.2;69.6
78522;SHT31;67819;51.972;5.678;2023-04-03T04:25:46;3.2;69.6
78522;SHT31;67819;51.972;5.678;2023-04-03T04:28:16;3.1;69.8
78522;SHT31;67819;51.972;5.678;2023-04-03T04:30:45;3.1;69.9
78522;SHT31;67819;51.972;5.678;2023-04-03T04:33:13;3.1;70.0
78522;SHT31;67819;51.972;5.678;2023-04-03T04:35:43;3.0;70.2
78522;SHT31;67819;51.972;5.678;2023-04-03T04:38:12;3.0;70.3
78522;SHT31;67819;51.972;5.678;2023-04-03T04:40:41;3.0;70.3
78522;SHT31;67819;51.972;5.678;2023-04-03T04:43:09;3.0;70.5
78522;SHT31;67819;51.972;5.678;2023-04-03T04:45:42;2.9;70.6
78522;SHT31;67819;51.972;5.678;2023-04-03T04:48:11;2.9;70.6
78522;SHT31;67819;51.972;5.678;2023-04-03T04:50:42;2.9;70.7
78522;SHT31;67819;51.972;5.678;2023-04-03T04:53:11;2.8;70.8
78522;SHT31;67819;51.972;5.678;2023-04-03T04:55:39;2.8;71.0
78522;SHT31;67819;51.972;5.678;2023-04-03T04:58:09;2.8;71.3
78522;SHT31;67819;51.972;5.678;2023-04-03T05:00:37;2.8;71.2
78522;SHT31;67819;51.972;5.678;2023-04-03T05:03:08;2.7;71.4
78522;SHT31;67819;51.972;5.678;2023-04-03T05:05:37;2.7;71.6
78522;SHT31;67819;51.972;5.678;2023-04-03T05:08:06;2.7;71.7
78522;SHT31;67819;51.972;5.678;2023-04-03T05:10:35;2.7;71.9
78522;SHT31;67819;51.972;5.678;2023-04-03T05:13:04;2.6;71.8
78522;SHT31;67819;51.972;5.678;2023-04-03T05:15:32;2.6;71.9
78522;SHT31;67819;51.972;5.678;2023-04-03T05:18:01;2.6;71.9
78522;SHT31;67819;51.972;5.678;2023-04-03T05:20:31;2.6;72.0
78522;SHT31;67819;51.972;5.678;2023-04-03T05:23:01;2.6;72.0
78522;SHT31;67819;51.972;5.678;2023-04-03T05:25:30;2.5;72.1
78522;SHT31;67819;51.972;5.678;2023-04-03T05:27:59;2.5;72.3
78522;SHT31;67819;51.972;5.678;2023-04-03T05:30:27;2.5;72.3
78522;SHT31;67819;51.972;5.678;2023-04-03T05:32:56;2.5;72.5
78522;SHT31;67819;51.972;5.678;2023-04-03T05:35:26;2.5;72.4
78522;SHT31;67819;51.972;5.678;2023-04-03T05:37:55;2.5;72.6
78522;SHT31;67819;51.972;5.678;2023-04-03T05:40:24;2.5;72.5
78522;SHT31;67819;51.972;5.678;2023-04-03T05:42:53;2.5;72.5
78522;SHT31;67819;51.972;5.678;2023-04-03T05:45:22;2.5;72.5
78522;SHT31;67819;51.972;5.678;2023-04-03T05:47:52;2.5;72.4
78522;SHT31;67819;51.972;5.678;2023-04-03T05:50:21;2.5;72.3
78522;SHT31;67819;51.972;5.678;2023-04-03T05:52:52;2.5;72.3
78522;SHT31;67819;51.972;5.678;2023-04-03T05:55:24;2.5;72.2
78522;SHT31;67819;51.972;5.678;2023-04-03T05:57:53;2.6;72.1
78522;SHT31;67819;51.972;5.678;2023-04-03T06:00:22;2.6;71.9
78522;SHT31;67819;51.972;5.678;2023-04-03T06:02:51;2.6;71.9
78522;SHT31;67819;51.972;5.678;2023-04-03T06:05:20;2.7;71.7
78522;SHT31;67819;51.972;5.678;2023-04-03T06:07:49;2.7;71.6
78522;SHT31;67819;51.972;5.678;2023-04-03T06:10:17;2.7;71.3
78522;SHT31;67819;51.972;5.678;2023-04-03T06:12:48;2.8;71.0
78522;SHT31;67819;51.972;5.678;2023-04-03T06:15:17;2.8;70.9
78522;SHT31;67819;51.972;5.678;2023-04-03T06:17:46;2.9;70.7
78522;SHT31;67819;51.972;5.678;2023-04-03T06:20:15;2.9;70.3
78522;SHT31;67819;51.972;5.678;2023-04-03T06:22:44;2.9;70.1
78522;SHT31;67819;51.972;5.678;2023-04-03T06:25:13;3.0;69.9
78522;SHT31;67819;51.972;5.678;2023-04-03T06:27:43;3.0;69.7
78522;SHT31;67819;51.972;5.678;2023-04-03T06:30:15;3.1;70.2
78522;SHT31;67819;51.972;5.678;2023-04-03T06:32:43;3.1;69.6
78522;SHT31;67819;51.972;5.678;2023-04-03T06:35:15;3.2;69.4
78522;SHT31;67819;51.972;5.678;2023-04-03T06:37:43;3.2;69.3
78522;SHT31;67819;51.972;5.678;2023-04-03T06:40:19;3.2;68.9
78522;SHT31;67819;51.972;5.678;2023-04-03T06:42:49;3.3;68.8
78522;SHT31;67819;51.972;5.678;2023-04-03T06:45:18;3.3;68.6
78522;SHT31;67819;51.972;5.678;2023-04-03T06:47:48;3.4;68.1
78522;SHT31;67819;51.972;5.678;2023-04-03T06:50:16;3.4;68.2
78522;SHT31;67819;51.972;5.678;2023-04-03T06:52:47;3.4;68.1
78522;SHT31;67819;51.972;5.678;2023-04-03T06:55:18;3.5;68.0
78522;SHT31;67819;51.972;5.678;2023-04-03T06:57:47;3.5;68.3
78522;SHT31;67819;51.972;5.678;2023-04-03T07:00:16;3.6;67.5
78522;SHT31;67819;51.972;5.678;2023-04-03T07:02:45;3.7;67.2
78522;SHT31;67819;51.972;5.678;2023-04-03T07:05:14;3.8;66.7
78522;SHT31;67819;51.972;5.678;2023-04-03T07:07:43;3.8;66.5
78522;SHT31;67819;51.972;5.678;2023-04-03T07:10:12;3.9;66.5
78522;SHT31;67819;51.972;5.678;2023-04-03T07:12:43;4.0;65.4
78522;SHT31;67819;51.972;5.678;2023-04-03T07:15:12;4.0;65.3
78522;SHT31;67819;51.972;5.678;2023-04-03T07:17:41;4.1;65.3
78522;SHT31;67819;51.972;5.678;2023-04-03T07:20:11;4.2;64.4
78522;SHT31;67819;51.972;5.678;2023-04-03T07:22:41;4.2;63.4
78522;SHT31;67819;51.972;5.678;2023-04-03T07:25:12;4.3;64.0
78522;SHT31;67819;51.972;5.678;2023-04-03T07:27:41;4.4;63.7
78522;SHT31;67819;51.972;5.678;2023-04-03T07:30:13;4.4;63.8
78522;SHT31;67819;51.972;5.678;2023-04-03T07:32:42;4.5;62.9
78522;SHT31;67819;51.972;5.678;2023-04-03T07:35:12;4.6;61.5
78522;SHT31;67819;51.972;5.678;2023-04-03T07:37:41;4.7;61.5
78522;SHT31;67819;51.972;5.678;2023-04-03T07:40:11;4.7;59.5
78522;SHT31;67819;51.972;5.678;2023-04-03T07:42:40;4.8;60.3
78522;SHT31;67819;51.972;5.678;2023-04-03T07:45:09;4.8;60.1
78522;SHT31;67819;51.972;5.678;2023-04-03T07:47:38;4.9;60.2
78522;SHT31;67819;51.972;5.678;2023-04-03T07:50:10;4.9;59.9
78522;SHT31;67819;51.972;5.678;2023-04-03T07:52:39;5.0;60.1
78522;SHT31;67819;51.972;5.678;2023-04-03T07:55:08;5.1;59.3
78522;SHT31;67819;51.972;5.678;2023-04-03T07:57:37;5.2;57.8
78522;SHT31;67819;51.972;5.678;2023-04-03T08:00:07;5.2;57.7
78522;SHT31;67819;51.972;5.678;2023-04-03T08:02:38;5.3;54.8
78522;SHT31;67819;51.972;5.678;2023-04-03T08:05:08;5.4;54.4
78522;SHT31;67819;51.972;5.678;2023-04-03T08:07:38;5.4;55.0
78522;SHT31;67819;51.972;5.678;2023-04-03T08:10:07;5.5;53.7
78522;SHT31;67819;51.972;5.678;2023-04-03T08:12:36;5.5;53.1
78522;SHT31;67819;51.972;5.678;2023-04-03T08:15:06;5.6;52.6
78522;SHT31;67819;51.972;5.678;2023-04-03T08:17:35;5.7;52.0
78522;SHT31;67819;51.972;5.678;2023-04-03T08:20:06;5.8;53.5
78522;SHT31;67819;51.972;5.678;2023-04-03T08:22:35;5.8;49.4
78522;SHT31;67819;51.972;5.678;2023-04-03T08:25:05;5.9;49.7
78522;SHT31;67819;51.972;5.678;2023-04-03T08:27:34;6.0;47.7
78522;SHT31;67819;51.972;5.678;2023-04-03T08:30:04;6.0;47.0
78522;SHT31;67819;51.972;5.678;2023-04-03T08:32:33;6.1;46.6
78522;SHT31;67819;51.972;5.678;2023-04-03T08:35:03;6.2;45.3
78522;SHT31;67819;51.972;5.678;2023-04-03T08:37:35;6.2;42.6
78522;SHT31;67819;51.972;5.678;2023-04-03T08:40:06;6.3;42.2
78522;SHT31;67819;51.972;5.678;2023-04-03T08:42:44;6.3;43.6
78522;SHT31;67819;51.972;5.678;2023-04-03T08:45:17;6.4;41.8
78522;SHT31;67819;51.972;5.678;2023-04-03T08:47:55;6.5;38.6
78522;SHT31;67819;51.972;5.678;2023-04-03T08:50:31;6.5;38.7
78522;SHT31;67819;51.972;5.678;2023-04-03T08:53:03;6.6;37.0
78522;SHT31;67819;51.972;5.678;2023-04-03T08:55:37;6.7;36.6
78522;SHT31;67819;51.972;5.678;2023-04-03T08:58:12;6.7;36.0
78522;SHT31;67819;51.972;5.678;2023-04-03T09:00:45;6.8;35.3
78522;SHT31;67819;51.972;5.678;2023-04-03T09:03:16;6.9;34.3
78522;SHT31;67819;51.972;5.678;2023-04-03T09:05:53;6.9;34.3
78522;SHT31;67819;51.972;5.678;2023-04-03T09:08:27;7.0;34.2
78522;SHT31;67819;51.972;5.678;2023-04-03T09:11:09;7.0;35.4
78522;SHT31;67819;51.972;5.678;2023-04-03T09:13:49;7.1;34.4
78522;SHT31;67819;51.972;5.678;2023-04-03T09:16:33;7.2;34.7
78522;SHT31;67819;51.972;5.678;2023-04-03T09:19:11;7.3;32.1
78522;SHT31;67819;51.972;5.678;2023-04-03T09:21:42;7.3;30.9
78522;SHT31;67819;51.972;5.678;2023-04-03T09:24:14;7.4;28.7
78522;SHT31;67819;51.972;5.678;2023-04-03T09:26:48;7.4;27.8
78522;SHT31;67819;51.972;5.678;2023-04-03T09:29:22;7.4;29.0
78522;SHT31;67819;51.972;5.678;2023-04-03T09:31:56;7.4;28.3
78522;SHT31;67819;51.972;5.678;2023-04-03T09:34:29;7.5;28.7
78522;SHT31;67819;51.972;5.678;2023-04-03T09:37:01;7.5;29.5
78522;SHT31;67819;51.972;5.678;2023-04-03T09:39:50;7.5;29.5
78522;SHT31;67819;51.972;5.678;2023-04-03T09:42:22;7.6;31.0
78522;SHT31;67819;51.972;5.678;2023-04-03T09:44:56;7.6;31.3
78522;SHT31;67819;51.972;5.678;2023-04-03T09:47:28;7.7;30.1
78522;SHT31;67819;51.972;5.678;2023-04-03T09:50:20;7.7;28.8
78522;SHT31;67819;51.972;5.678;2023-04-03T09:52:51;7.8;29.4
78522;SHT31;67819;51.972;5.678;2023-04-03T09:55:22;7.8;29.6
78522;SHT31;67819;51.972;5.678;2023-04-03T09:57:57;7.8;28.7
78522;SHT31;67819;51.972;5.678;2023-04-03T10:00:30;7.8;29.2
78522;SHT31;67819;51.972;5.678;2023-04-03T10:03:00;7.8;29.9
78522;SHT31;67819;51.972;5.678;2023-04-03T10:05:32;7.8;29.4
78522;SHT31;67819;51.972;5.678;2023-04-03T10:08:11;7.8;28.6
78522;SHT31;67819;51.972;5.678;2023-04-03T10:10:40;7.9;29.5
78522;SHT31;67819;51.972;5.678;2023-04-03T10:13:12;7.9;31.6
78522;SHT31;67819;51.972;5.678;2023-04-03T10:15:45;7.9;30.5
78522;SHT31;67819;51.972;5.678;2023-04-03T10:18:31;8.0;30.0
78522;SHT31;67819;51.972;5.678;2023-04-03T10:21:06;8.1;32.1
78522;SHT31;67819;51.972;5.678;2023-04-03T10:23:43;8.1;30.8
78522;SHT31;67819;51.972;5.678;2023-04-03T10:26:20;8.2;31.7
78522;SHT31;67819;51.972;5.678;2023-04-03T10:29:00;8.2;30.4
78522;SHT31;67819;51.972;5.678;2023-04-03T10:31:37;8.3;30.4
78522;SHT31;67819;51.972;5.678;2023-04-03T10:34:18;8.3;31.6
78522;SHT31;67819;51.972;5.678;2023-04-03T10:36:57;8.4;29.9
78522;SHT31;67819;51.972;5.678;2023-04-03T10:39:39;8.4;31.6
78522;SHT31;67819;51.972;5.678;2023-04-03T10:42:16;8.5;31.5
78522;SHT31;67819;51.972;5.678;2023-04-03T10:45:15;8.5;30.7
78522;SHT31;67819;51.972;5.678;2023-04-03T10:47:55;8.5;31.0
78522;SHT31;67819;51.972;5.678;2023-04-03T10:50:54;8.6;32.0
78522;SHT31;67819;51.972;5.678;2023-04-03T10:53:32;8.6;32.9
78522;SHT31;67819;51.972;5.678;2023-04-03T10:56:11;8.6;32.0
78522;SHT31;67819;51.972;5.678;2023-04-03T10:58:45;8.6;32.3
78522;SHT31;67819;51.972;5.678;2023-04-03T11:01:20;8.7;32.8
78522;SHT31;67819;51.972;5.678;2023-04-03T11:03:54;8.7;33.3
78522;SHT31;67819;51.972;5.678;2023-04-03T11:06:31;8.7;31.1
78522;SHT31;67819;51.972;5.678;2023-04-03T11:09:02;8.7;32.0
78522;SHT31;67819;51.972;5.678;2023-04-03T11:11:35;8.7;32.2
78522;SHT31;67819;51.972;5.678;2023-04-03T11:14:14;8.8;33.5
78522;SHT31;67819;51.972;5.678;2023-04-03T11:16:49;8.8;31.9
78522;SHT31;67819;51.972;5.678;2023-04-03T11:19:22;8.8;32.7
78522;SHT31;67819;51.972;5.678;2023-04-03T11:22:03;8.9;32.8
78522;SHT31;67819;51.972;5.678;2023-04-03T11:24:36;8.9;33.4
78522;SHT31;67819;51.972;5.678;2023-04-03T11:27:17;9.0;32.7
78522;SHT31;67819;51.972;5.678;2023-04-03T11:29:51;9.1;32.6
78522;SHT31;67819;51.972;5.678;2023-04-03T11:32:37;9.1;32.4
78522;SHT31;67819;51.972;5.678;2023-04-03T11:35:10;9.2;31.6
78522;SHT31;67819;51.972;5.678;2023-04-03T11:37:43;9.2;31.7
78522;SHT31;67819;51.972;5.678;2023-04-03T11:40:22;9.3;31.2
78522;SHT31;67819;51.972;5.678;2023-04-03T11:43:05;9.3;31.4
78522;SHT31;67819;51.972;5.678;2023-04-03T11:45:51;9.4;32.0
78522;SHT31;67819;51.972;5.678;2023-04-03T11:48:44;9.4;31.1
78522;SHT31;67819;51.972;5.678;2023-04-03T11:54:48;9.6;30.2
78522;SHT31;67819;51.972;5.678;2023-04-03T11:57:50;9.6;29.8
78522;SHT31;67819;51.972;5.678;2023-04-03T12:00:53;9.6;30.5
78522;SHT31;67819;51.972;5.678;2023-04-03T12:06:59;9.8;30.8
78522;SHT31;67819;51.972;5.678;2023-04-03T12:10:16;9.8;29.8
78522;SHT31;67819;51.972;5.678;2023-04-03T12:12:58;9.9;30.3
78522;SHT31;67819;51.972;5.678;2023-04-03T12:15:52;9.9;30.7
78522;SHT31;67819;51.972;5.678;2023-04-03T12:23:26;10.1;30.2
78522;SHT31;67819;51.972;5.678;2023-04-03T12:26:01;10.2;32.8
78522;SHT31;67819;51.972;5.678;2023-04-03T12:28:36;10.2;30.9
78522;SHT31;67819;51.972;5.678;2023-04-03T12:31:10;10.3;30.2
78522;SHT31;67819;51.972;5.678;2023-04-03T12:33:51;10.4;32.0
78522;SHT31;67819;51.972;5.678;2023-04-03T12:36:33;10.4;30.9
78522;SHT31;67819;51.972;5.678;2023-04-03T12:39:19;10.5;31.5
78522;SHT31;67819;51.972;5.678;2023-04-03T12:42:02;10.6;31.4
78522;SHT31;67819;51.972;5.678;2023-04-03T12:44:39;10.6;31.0
78522;SHT31;67819;51.972;5.678;2023-04-03T12:47:24;10.7;30.8
78522;SHT31;67819;51.972;5.678;2023-04-03T12:49:55;10.7;30.4
78522;SHT31;67819;51.972;5.678;2023-04-03T12:52:32;10.7;30.4
78522;SHT31;67819;51.972;5.678;2023-04-03T12:55:03;10.8;30.7
78522;SHT31;67819;51.972;5.678;2023-04-03T12:57:36;10.8;30.4
78522;SHT31;67819;51.972;5.678;2023-04-03T13:00:21;10.8;30.1
78522;SHT31;67819;51.972;5.678;2023-04-03T13:02:50;10.8;31.9
78522;SHT31;67819;51.972;5.678;2023-04-03T13:05:23;10.9;31.6
78522;SHT31;67819;51.972;5.678;2023-04-03T13:07:58;11.0;31.5
78522;SHT31;67819;51.972;5.678;2023-04-03T13:10:28;11.2;30.1
78522;SHT31;67819;51.972;5.678;2023-04-03T13:13:09;11.3;30.6
78522;SHT31;67819;51.972;5.678;2023-04-03T13:15:46;11.4;29.8
78522;SHT31;67819;51.972;5.678;2023-04-03T13:18:27;11.5;29.9
78522;SHT31;67819;51.972;5.678;2023-04-03T13:21:01;11.6;28.6
78522;SHT31;67819;51.972;5.678;2023-04-03T13:23:32;11.7;29.5
78522;SHT31;67819;51.972;5.678;2023-04-03T13:26:03;11.8;29.5
78522;SHT31;67819;51.972;5.678;2023-04-03T13:28:34;11.9;29.3
78522;SHT31;67819;51.972;5.678;2023-04-03T13:31:07;11.9;29.5
78522;SHT31;67819;51.972;5.678;2023-04-03T13:33:50;12.1;28.5
78522;SHT31;67819;51.972;5.678;2023-04-03T13:36:20;12.2;29.4
78522;SHT31;67819;51.972;5.678;2023-04-03T13:39:01;12.3;28.4
78522;SHT31;67819;51.972;5.678;2023-04-03T13:41:33;12.4;28.3
78522;SHT31;67819;51.972;5.678;2023-04-03T13:44:26;12.5;28.7
78522;SHT31;67819;51.972;5.678;2023-04-03T13:46:58;12.6;27.8
78522;SHT31;67819;51.972;5.678;2023-04-03T13:49:33;12.7;26.4
78522;SHT31;67819;51.972;5.678;2023-04-03T13:52:17;12.7;28.6
78522;SHT31;67819;51.972;5.678;2023-04-03T13:54:38;12.8;28.2
78522;SHT31;67819;51.972;5.678;2023-04-03T13:57:15;12.9;28.4
78522;SHT31;67819;51.972;5.678;2023-04-03T13:59:44;13.0;28.5
78522;SHT31;67819;51.972;5.678;2023-04-03T14:02:19;13.1;27.5
78522;SHT31;67819;51.972;5.678;2023-04-03T14:04:53;13.2;27.4
78522;SHT31;67819;51.972;5.678;2023-04-03T14:07:27;13.3;27.0
78522;SHT31;67819;51.972;5.678;2023-04-03T14:09:57;13.3;26.1
78522;SHT31;67819;51.972;5.678;2023-04-03T14:12:31;13.3;26.5
78522;SHT31;67819;51.972;5.678;2023-04-03T14:15:04;13.3;27.4
78522;SHT31;67819;51.972;5.678;2023-04-03T14:17:33;13.4;27.6
78522;SHT31;67819;51.972;5.678;2023-04-03T14:20:02;13.4;27.2
78522;SHT31;67819;51.972;5.678;2023-04-03T14:22:34;13.5;27.0
78522;SHT31;67819;51.972;5.678;2023-04-03T14:25:05;13.6;27.3
78522;SHT31;67819;51.972;5.678;2023-04-03T14:27:37;13.7;27.4
78522;SHT31;67819;51.972;5.678;2023-04-03T14:30:20;13.7;27.4
78522;SHT31;67819;51.972;5.678;2023-04-03T14:32:42;13.8;27.4
78522;SHT31;67819;51.972;5.678;2023-04-03T14:35:11;13.8;27.2
78522;SHT31;67819;51.972;5.678;2023-04-03T14:37:41;13.8;27.0
78522;SHT31;67819;51.972;5.678;2023-04-03T14:40:13;13.8;27.4
78522;SHT31;67819;51.972;5.678;2023-04-03T14:42:43;13.9;28.4
78522;SHT31;67819;51.972;5.678;2023-04-03T14:45:13;13.9;28.1
78522;SHT31;67819;51.972;5.678;2023-04-03T14:47:46;13.9;29.4
78522;SHT31;67819;51.972;5.678;2023-04-03T14:50:19;14.0;27.5
78522;SHT31;67819;51.972;5.678;2023-04-03T14:52:50;14.0;27.7
78522;SHT31;67819;51.972;5.678;2023-04-03T14:55:22;14.1;27.9
78522;SHT31;67819;51.972;5.678;2023-04-03T14:57:52;14.1;27.2
78522;SHT31;67819;51.972;5.678;2023-04-03T15:00:22;14.1;28.1
78522;SHT31;67819;51.972;5.678;2023-04-03T15:02:51;14.1;28.2
78522;SHT31;67819;51.972;5.678;2023-04-03T15:05:22;14.2;27.2
78522;SHT31;67819;51.972;5.678;2023-04-03T15:07:54;14.2;28.4
78522;SHT31;67819;51.972;5.678;2023-04-03T15:10:26;14.3;27.4
78522;SHT31;67819;51.972;5.678;2023-04-03T15:12:55;14.3;27.8
78522;SHT31;67819;51.972;5.678;2023-04-03T15:15:29;14.2;28.0
78522;SHT31;67819;51.972;5.678;2023-04-03T15:17:59;14.2;27.7
78522;SHT31;67819;51.972;5.678;2023-04-03T15:20:28;14.2;28.3
78522;SHT31;67819;51.972;5.678;2023-04-03T15:23:02;14.1;28.5
78522;SHT31;67819;51.972;5.678;2023-04-03T15:25:34;13.9;28.8
78522;SHT31;67819;51.972;5.678;2023-04-03T15:28:03;13.8;29.8
78522;SHT31;67819;51.972;5.678;2023-04-03T15:30:39;13.6;29.4
78522;SHT31;67819;51.972;5.678;2023-04-03T15:33:09;13.4;29.8
78522;SHT31;67819;51.972;5.678;2023-04-03T15:35:38;13.2;30.2
78522;SHT31;67819;51.972;5.678;2023-04-03T15:38:07;13.0;30.1
78522;SHT31;67819;51.972;5.678;2023-04-03T15:40:36;12.8;30.1
78522;SHT31;67819;51.972;5.678;2023-04-03T15:43:06;12.6;30.1
78522;SHT31;67819;51.972;5.678;2023-04-03T15:45:37;12.4;31.6
78522;SHT31;67819;51.972;5.678;2023-04-03T15:48:06;12.3;31.1
78522;SHT31;67819;51.972;5.678;2023-04-03T15:50:36;12.3;30.8
78522;SHT31;67819;51.972;5.678;2023-04-03T15:53:05;12.2;31.4
78522;SHT31;67819;51.972;5.678;2023-04-03T15:55:36;12.2;31.4
78522;SHT31;67819;51.972;5.678;2023-04-03T15:58:05;12.2;32.0
78522;SHT31;67819;51.972;5.678;2023-04-03T16:00:35;12.2;31.9
78522;SHT31;67819;51.972;5.678;2023-04-03T16:03:10;12.1;31.3
78522;SHT31;67819;51.972;5.678;2023-04-03T16:05:39;12.1;31.9
78522;SHT31;67819;51.972;5.678;2023-04-03T16:08:10;12.1;32.6
78522;SHT31;67819;51.972;5.678;2023-04-03T16:10:42;12.1;31.6
78522;SHT31;67819;51.972;5.678;2023-04-03T16:13:12;12.1;31.8
78522;SHT31;67819;51.972;5.678;2023-04-03T16:15:41;12.1;31.7
78522;SHT31;67819;51.972;5.678;2023-04-03T16:18:10;12.0;31.9
78522;SHT31;67819;51.972;5.678;2023-04-03T16:20:40;12.0;32.0
78522;SHT31;67819;51.972;5.678;2023-04-03T16:23:11;12.0;31.5
78522;SHT31;67819;51.972;5.678;2023-04-03T16:25:40;11.9;31.4
78522;SHT31;67819;51.972;5.678;2023-04-03T16:28:12;11.9;31.2
78522;SHT31;67819;51.972;5.678;2023-04-03T16:30:42;11.8;31.8
78522;SHT31;67819;51.972;5.678;2023-04-03T16:33:12;11.8;32.9
78522;SHT31;67819;51.972;5.678;2023-04-03T16:35:41;11.7;32.0
78522;SHT31;67819;51.972;5.678;2023-04-03T16:38:11;11.6;32.7
78522;SHT31;67819;51.972;5.678;2023-04-03T16:40:41;11.4;33.2
78522;SHT31;67819;51.972;5.678;2023-04-03T16:43:10;11.2;32.9
78522;SHT31;67819;51.972;5.678;2023-04-03T16:45:41;11.0;34.2
78522;SHT31;67819;51.972;5.678;2023-04-03T16:48:12;10.9;34.0
78522;SHT31;67819;51.972;5.678;2023-04-03T16:50:40;10.8;34.9
78522;SHT31;67819;51.972;5.678;2023-04-03T16:53:09;10.6;34.8
78522;SHT31;67819;51.972;5.678;2023-04-03T16:55:38;10.5;35.4
78522;SHT31;67819;51.972;5.678;2023-04-03T16:58:08;10.4;35.5
78522;SHT31;67819;51.972;5.678;2023-04-03T17:00:39;10.3;35.2